sensor_id;sensor_type;location;lat;lon;timestamp;temperature;humidity
70166;SHT30;57541;47.408;18.822;2023-05-07T00:00:16;13.90;99.68
70166;SHT30;57541;47.408;18.822;2023-05-07T00:00:50;13.85;99.76
70166;SHT30;57541;47.408;18.822;2023-05-07T00:01:22;13.82;99.83
70166;SHT30;57541;47.408;18.822;2023-05-07T00:01:54;13.81;99.84
70166;SHT30;57541;47.408;18.822;2023-05-07T00:02:25;13.82;99.78
70166;SHT30;57541;47.408;18.822;2023-05-07T00:02:57;13.79;99.80
70166;SHT30;57541;47.408;18.822;2023-05-07T00:03:29;13.83;99.82
70166;SHT30;57541;47.408;18.822;2023-05-07T00:04:01;13.83;99.70
70166;SHT30;57541;47.408;18.822;2023-05-07T00:04:33;13.82;99.58
70166;SHT30;57541;47.408;18.822;2023-05-07T00:05:09;13.83;99.64
70166;SHT30;57541;47.408;18.822;2023-05-07T00:05:41;13.79;99.55
70166;SHT30;57541;47.408;18.822;2023-05-07T00:06:12;13.68;99.60
70166;SHT30;57541;47.408;18.822;2023-05-07T00:06:44;13.69;99.72
70166;SHT30;57541;47.408;18.822;2023-05-07T00:07:16;13.69;99.79
70166;SHT30;57541;47.408;18.822;2023-05-07T00:07:47;13.65;99.79
70166;SHT30;57541;47.408;18.822;2023-05-07T00:08:19;13.69;99.87
70166;SHT30;57541;47.408;18.822;2023-05-07T00:08:51;13.66;99.90
70166;SHT30;57541;47.408;18.822;2023-05-07T00:09:23;13.69;99.90
70166;SHT30;57541;47.408;18.822;2023-05-07T00:09:55;13.66;99.84
70166;SHT30;57541;47.408;18.822;2023-05-07T00:10:26;13.64;99.82
70166;SHT30;57541;47.408;18.822;2023-05-07T00:11:00;13.50;99.99
70166;SHT30;57541;47.408;18.822;2023-05-07T00:11:32;13.45;99.99
70166;SHT30;57541;47.408;18.822;2023-05-07T00:12:07;13.45;99.99
70166;SHT30;57541;47.408;18.822;2023-05-07T00:12:39;13.34;99.82
70166;SHT30;57541;47.408;18.822;2023-05-07T00:13:12;13.34;99.95
70166;SHT30;57541;47.408;18.822;2023-05-07T00:13:43;13.31;99.78
70166;SHT30;57541;47.408;18.822;2023-05-07T00:14:15;13.34;99.86
70166;SHT30;57541;47.408;18.822;2023-05-07T00:14:46;13.26;99.68
70166;SHT30;57541;47.408;18.822;2023-05-07T00:15:18;13.28;99.66
70166;SHT30;57541;47.408;18.822;2023-05-07T00:15:50;13.21;99.58
70166;SHT30;57541;47.408;18.822;2023-05-07T00:16:22;13.16;99.67
70166;SHT30;57541;47.408;18.822;2023-05-07T00:16:53;13.17;99.67
70166;SHT30;57541;47.408;18.822;2023-05-07T00:17:25;13.14;99.88
70166;SHT30;57541;47.408;18.822;2023-05-07T00:17:57;13.11;99.98
70166;SHT30;57541;47.408;18.822;2023-05-07T00:18:30;13.11;99.98
70166;SHT30;57541;47.408;18.822;2023-05-07T00:19:03;13.11;99.99
70166;SHT30;57541;47.408;18.822;2023-05-07T00:19:35;13.14;99.97
70166;SHT30;57541;47.408;18.822;2023-05-07T00:20:07;13.13;99.99
70166;SHT30;57541;47.408;18.822;2023-05-07T00:20:39;13.11;99.91
70166;SHT30;57541;47.408;18.822;2023-05-07T00:21:11;13.11;99.99
70166;SHT30;57541;47.408;18.822;2023-05-07T00:21:43;13.11;99.99
70166;SHT30;57541;47.408;18.822;2023-05-07T00:22:14;13.16;99.99
70166;SHT30;57541;47.408;18.822;2023-05-07T00:22:46;13.21;99.99
70166;SHT30;57541;47.408;18.822;2023-05-07T00:23:18;13.21;99.99
70166;SHT30;57541;47.408;18.822;2023-05-07T00:23:50;13.21;99.96
70166;SHT30;57541;47.408;18.822;2023-05-07T00:24:21;13.23;99.96
70166;SHT30;57541;47.408;18.822;2023-05-07T00:24:53;13.16;99.95
70166;SHT30;57541;47.408;18.822;2023-05-07T00:25:25;13.16;99.99
70166;SHT30;57541;47.408;18.822;2023-05-07T00:25:56;13.16;99.99
70166;SHT30;57541;47.408;18.822;2023-05-07T00:26:28;13.17;99.99
70166;SHT30;57541;47.408;18.822;2023-05-07T00:27:00;13.14;99.99
70166;SHT30;57541;47.408;18.822;2023-05-07T00:27:31;13.21;99.99
70166;SHT30;57541;47.408;18.822;2023-05-07T00:28:03;13.18;99.91
70166;SHT30;57541;47.408;18.822;2023-05-07T00:28:35;13.18;99.92
70166;SHT30;57541;47.408;18.822;2023-05-07T00:29:07;13.17;99.92
70166;SHT30;57541;47.408;18.822;2023-05-07T00:29:38;13.21;99.99
70166;SHT30;57541;47.408;18.822;2023-05-07T00:30:11;13.18;99.93
70166;SHT30;57541;47.408;18.822;2023-05-07T00:30:43;13.16;99.85
70166;SHT30;57541;47.408;18.822;2023-05-07T00:31:14;13.10;99.89
70166;SHT30;57541;47.408;18.822;2023-05-07T00:31:46;13.14;99.99
70166;SHT30;57541;47.408;18.822;2023-05-07T00:32:18;13.06;99.99
70166;SHT30;57541;47.408;18.822;2023-05-07T00:32:49;13.06;99.99
70166;SHT30;57541;47.408;18.822;2023-05-07T00:33:22;13.00;99.99
70166;SHT30;57541;47.408;18.822;2023-05-07T00:33:54;12.99;99.99
70166;SHT30;57541;47.408;18.822;2023-05-07T00:34:25;12.99;99.99
70166;SHT30;57541;47.408;18.822;2023-05-07T00:34:57;12.97;99.99
70166;SHT30;57541;47.408;18.822;2023-05-07T00:35:29;13.00;99.99
70166;SHT30;57541;47.408;18.822;2023-05-07T00:36:01;13.03;99.99
70166;SHT30;57541;47.408;18.822;2023-05-07T00:36:33;13.03;99.99
70166;SHT30;57541;47.408;18.822;2023-05-07T00:37:05;12.99;99.99
70166;SHT30;57541;47.408;18.822;2023-05-07T00:37:38;13.02;99.99
70166;SHT30;57541;47.408;18.822;2023-05-07T00:38:10;12.97;99.99
70166;SHT30;57541;47.408;18.822;2023-05-07T00:38:41;13.00;99.99
70166;SHT30;57541;47.408;18.822;2023-05-07T00:39:13;12.99;99.99
70166;SHT30;57541;47.408;18.822;2023-05-07T00:39:45;13.00;99.99
70166;SHT30;57541;47.408;18.822;2023-05-07T00:40:16;13.02;99.99
70166;SHT30;57541;47.408;18.822;2023-05-07T00:40:48;13.02;99.99
70166;SHT30;57541;47.408;18.822;2023-05-07T00:41:20;13.07;99.99
70166;SHT30;57541;47.408;18.822;2023-05-07T00:41:51;13.03;99.99
70166;SHT30;57541;47.408;18.822;2023-05-07T00:42:23;13.00;99.99
70166;SHT30;57541;47.408;18.822;2023-05-07T00:42:55;12.99;99.99
70166;SHT30;57541;47.408;18.822;2023-05-07T00:43:29;12.93;99.99
70166;SHT30;57541;47.408;18.822;2023-05-07T00:44:01;13.02;99.99
70166;SHT30;57541;47.408;18.822;2023-05-07T00:44:33;13.00;99.99
70166;SHT30;57541;47.408;18.822;2023-05-07T00:45:06;13.02;99.99
70166;SHT30;57541;47.408;18.822;2023-05-07T00:45:39;12.97;99.99
70166;SHT30;57541;47.408;18.822;2023-05-07T00:46:11;12.86;99.99
70166;SHT30;57541;47.408;18.822;2023-05-07T00:46:43;12.80;99.99
70166;SHT30;57541;47.408;18.822;2023-05-07T00:47:16;12.80;99.99
70166;SHT30;57541;47.408;18.822;2023-05-07T00:47:48;12.87;99.99
70166;SHT30;57541;47.408;18.822;2023-05-07T00:48:20;12.95;99.99
70166;SHT30;57541;47.408;18.822;2023-05-07T00:48:52;12.95;99.98
70166;SHT30;57541;47.408;18.822;2023-05-07T00:49:38;12.96;99.99
70166;SHT30;57541;47.408;18.822;2023-05-07T00:50:11;12.96;99.99
70166;SHT30;57541;47.408;18.822;2023-05-07T00:50:44;12.89;99.91
70166;SHT30;57541;47.408;18.822;2023-05-07T00:51:17;12.89;99.98
70166;SHT30;57541;47.408;18.822;2023-05-07T00:51:49;12.85;99.99
70166;SHT30;57541;47.408;18.822;2023-05-07T00:52:25;12.73;99.99
70166;SHT30;57541;47.408;18.822;2023-05-07T00:52:57;12.75;99.99
70166;SHT30;57541;47.408;18.822;2023-05-07T00:53:30;12.73;99.99
70166;SHT30;57541;47.408;18.822;2023-05-07T00:54:02;12.79;99.99
70166;SHT30;57541;47.408;18.822;2023-05-07T00:54:34;12.73;99.98
70166;SHT30;57541;47.408;18.822;2023-05-07T00:55:06;12.69;99.99
70166;SHT30;57541;47.408;18.822;2023-05-07T00:55:39;12.75;99.99
70166;SHT30;57541;47.408;18.822;2023-05-07T00:56:11;12.70;99.99
70166;SHT30;57541;47.408;18.822;2023-05-07T00:56:43;12.68;99.95
70166;SHT30;57541;47.408;18.822;2023-05-07T00:57:16;12.63;99.91
70166;SHT30;57541;47.408;18.822;2023-05-07T00:57:49;12.58;99.87
70166;SHT30;57541;47.408;18.822;2023-05-07T00:58:21;12.59;99.94
70166;SHT30;57541;47.408;18.822;2023-05-07T00:58:53;12.52;99.82
70166;SHT30;57541;47.408;18.822;2023-05-07T00:59:26;12.56;99.75
70166;SHT30;57541;47.408;18.822;2023-05-07T00:59:58;12.49;99.99
70166;SHT30;57541;47.408;18.822;2023-05-07T01:00:29;12.49;99.99
70166;SHT30;57541;47.408;18.822;2023-05-07T01:01:01;12.48;99.99
70166;SHT30;57541;47.408;18.822;2023-05-07T01:01:33;12.52;99.99
70166;SHT30;57541;47.408;18.822;2023-05-07T01:02:05;12.48;99.99
70166;SHT30;57541;47.408;18.822;2023-05-07T01:02:38;12.49;99.99
70166;SHT30;57541;47.408;18.822;2023-05-07T01:03:09;12.49;99.99
70166;SHT30;57541;47.408;18.822;2023-05-07T01:03:42;12.44;99.99
70166;SHT30;57541;47.408;18.822;2023-05-07T01:04:14;12.46;99.99
70166;SHT30;57541;47.408;18.822;2023-05-07T01:04:46;12.46;99.99
70166;SHT30;57541;47.408;18.822;2023-05-07T01:05:19;12.39;99.99
70166;SHT30;57541;47.408;18.822;2023-05-07T01:05:52;12.45;99.99
70166;SHT30;57541;47.408;18.822;2023-05-07T01:06:25;12.48;99.99
70166;SHT30;57541;47.408;18.822;2023-05-07T01:07:00;12.44;99.99
70166;SHT30;57541;47.408;18.822;2023-05-07T01:07:33;12.42;99.99
70166;SHT30;57541;47.408;18.822;2023-05-07T01:08:06;12.38;99.99
70166;SHT30;57541;47.408;18.822;2023-05-07T01:08:39;12.39;99.99
70166;SHT30;57541;47.408;18.822;2023-05-07T01:09:12;12.39;99.99
70166;SHT30;57541;47.408;18.822;2023-05-07T01:09:44;12.41;99.99
70166;SHT30;57541;47.408;18.822;2023-05-07T01:10:17;12.45;99.99
70166;SHT30;57541;47.408;18.822;2023-05-07T01:10:49;12.42;99.99
70166;SHT30;57541;47.408;18.822;2023-05-07T01:11:20;12.44;99.99
70166;SHT30;57541;47.408;18.822;2023-05-07T01:11:53;12.38;99.99
70166;SHT30;57541;47.408;18.822;2023-05-07T01:12:26;12.37;99.99
70166;SHT30;57541;47.408;18.822;2023-05-07T01:12:59;12.35;99.99
70166;SHT30;57541;47.408;18.822;2023-05-07T01:13:32;12.29;99.99
70166;SHT30;57541;47.408;18.822;2023-05-07T01:14:04;12.29;99.99
70166;SHT30;57541;47.408;18.822;2023-05-07T01:14:36;12.28;99.99
70166;SHT30;57541;47.408;18.822;2023-05-07T01:15:09;12.21;99.99
70166;SHT30;57541;47.408;18.822;2023-05-07T01:15:41;12.20;99.99
70166;SHT30;57541;47.408;18.822;2023-05-07T01:16:13;12.20;99.99
70166;SHT30;57541;47.408;18.822;2023-05-07T01:16:47;12.14;99.99
70166;SHT30;57541;47.408;18.822;2023-05-07T01:17:19;12.11;99.99
70166;SHT30;57541;47.408;18.822;2023-05-07T01:17:51;12.16;99.99
70166;SHT30;57541;47.408;18.822;2023-05-07T01:18:22;12.17;99.99
70166;SHT30;57541;47.408;18.822;2023-05-07T01:18:54;12.18;99.99
70166;SHT30;57541;47.408;18.822;2023-05-07T01:19:29;12.16;99.99
70166;SHT30;57541;47.408;18.822;2023-05-07T01:20:01;12.14;99.99
70166;SHT30;57541;47.408;18.822;2023-05-07T01:20:33;12.16;99.99
70166;SHT30;57541;47.408;18.822;2023-05-07T01:21:05;12.10;99.99
70166;SHT30;57541;47.408;18.822;2023-05-07T01:21:38;12.10;99.97
70166;SHT30;57541;47.408;18.822;2023-05-07T01:22:10;12.08;99.99
70166;SHT30;57541;47.408;18.822;2023-05-07T01:22:43;12.11;99.91
70166;SHT30;57541;47.408;18.822;2023-05-07T01:23:15;12.04;99.76
70166;SHT30;57541;47.408;18.822;2023-05-07T01:23:47;12.01;99.67
70166;SHT30;57541;47.408;18.822;2023-05-07T01:24:18;12.00;99.60
70166;SHT30;57541;47.408;18.822;2023-05-07T01:24:50;11.94;99.56
70166;SHT30;57541;47.408;18.822;2023-05-07T01:25:23;11.87;99.67
70166;SHT30;57541;47.408;18.822;2023-05-07T01:25:55;11.80;99.80
70166;SHT30;57541;47.408;18.822;2023-05-07T01:26:27;11.80;99.99
70166;SHT30;57541;47.408;18.822;2023-05-07T01:26:58;11.73;99.96
70166;SHT30;57541;47.408;18.822;2023-05-07T01:27:30;11.70;99.99
70166;SHT30;57541;47.408;18.822;2023-05-07T01:28:02;11.70;99.99
70166;SHT30;57541;47.408;18.822;2023-05-07T01:28:34;11.70;99.99
70166;SHT30;57541;47.408;18.822;2023-05-07T01:29:05;11.76;99.99
70166;SHT30;57541;47.408;18.822;2023-05-07T01:29:38;11.74;99.99
70166;SHT30;57541;47.408;18.822;2023-05-07T01:30:10;11.73;99.99
70166;SHT30;57541;47.408;18.822;2023-05-07T01:30:49;11.71;99.99
70166;SHT30;57541;47.408;18.822;2023-05-07T01:31:23;11.69;99.99
70166;SHT30;57541;47.408;18.822;2023-05-07T01:31:57;11.74;99.99
70166;SHT30;57541;47.408;18.822;2023-05-07T01:32:47;11.83;99.99
70166;SHT30;57541;47.408;18.822;2023-05-07T01:33:20;11.88;99.99
70166;SHT30;57541;47.408;18.822;2023-05-07T01:33:56;11.93;99.99
70166;SHT30;57541;47.408;18.822;2023-05-07T01:34:31;11.95;99.99
70166;SHT30;57541;47.408;18.822;2023-05-07T01:35:05;11.97;99.99
70166;SHT30;57541;47.408;18.822;2023-05-07T01:35:40;12.04;99.99
70166;SHT30;57541;47.408;18.822;2023-05-07T01:36:13;11.98;99.99
70166;SHT30;57541;47.408;18.822;2023-05-07T01:36:46;11.98;99.99
70166;SHT30;57541;47.408;18.822;2023-05-07T01:37:18;12.01;99.99
70166;SHT30;57541;47.408;18.822;2023-05-07T01:37:50;12.02;99.99
70166;SHT30;57541;47.408;18.822;2023-05-07T01:38:23;12.08;99.99
70166;SHT30;57541;47.408;18.822;2023-05-07T01:38:55;12.05;99.99
70166;SHT30;57541;47.408;18.822;2023-05-07T01:39:29;12.11;99.90
70166;SHT30;57541;47.408;18.822;2023-05-07T01:40:02;12.11;99.89
70166;SHT30;57541;47.408;18.822;2023-05-07T01:40:34;12.07;99.99
70166;SHT30;57541;47.408;18.822;2023-05-07T01:41:07;12.11;99.99
70166;SHT30;57541;47.408;18.822;2023-05-07T01:41:39;12.17;99.99
70166;SHT30;57541;47.408;18.822;2023-05-07T01:42:10;12.18;99.88
70166;SHT30;57541;47.408;18.822;2023-05-07T01:42:43;12.14;99.81
70166;SHT30;57541;47.408;18.822;2023-05-07T01:43:15;12.16;99.91
70166;SHT30;57541;47.408;18.822;2023-05-07T01:43:47;12.20;99.94
70166;SHT30;57541;47.408;18.822;2023-05-07T01:44:19;12.21;99.82
70166;SHT30;57541;47.408;18.822;2023-05-07T01:44:51;12.20;99.84
70166;SHT30;57541;47.408;18.822;2023-05-07T01:45:23;12.18;99.78
70166;SHT30;57541;47.408;18.822;2023-05-07T01:45:55;12.21;99.83
70166;SHT30;57541;47.408;18.822;2023-05-07T01:46:27;12.20;99.78
70166;SHT30;57541;47.408;18.822;2023-05-07T01:46:59;12.17;99.86
70166;SHT30;57541;47.408;18.822;2023-05-07T01:47:32;12.22;99.97
70166;SHT30;57541;47.408;18.822;2023-05-07T01:48:05;12.16;99.84
70166;SHT30;57541;47.408;18.822;2023-05-07T01:48:38;12.18;99.96
70166;SHT30;57541;47.408;18.822;2023-05-07T01:49:10;12.20;99.94
70166;SHT30;57541;47.408;18.822;2023-05-07T01:49:42;12.29;99.90
70166;SHT30;57541;47.408;18.822;2023-05-07T01:50:15;12.27;99.89
70166;SHT30;57541;47.408;18.822;2023-05-07T01:50:48;12.29;99.81
70166;SHT30;57541;47.408;18.822;2023-05-07T01:51:21;12.29;99.74
70166;SHT30;57541;47.408;18.822;2023-05-07T01:51:53;12.31;99.74
70166;SHT30;57541;47.408;18.822;2023-05-07T01:52:25;12.31;99.75
70166;SHT30;57541;47.408;18.822;2023-05-07T01:52:56;12.29;99.87
70166;SHT30;57541;47.408;18.822;2023-05-07T01:53:28;12.31;99.87
70166;SHT30;57541;47.408;18.822;2023-05-07T01:54:00;12.31;99.79
70166;SHT30;57541;47.408;18.822;2023-05-07T01:54:32;12.31;99.77
70166;SHT30;57541;47.408;18.822;2023-05-07T01:55:05;12.37;99.85
70166;SHT30;57541;47.408;18.822;2023-05-07T01:55:37;12.32;99.84
70166;SHT30;57541;47.408;18.822;2023-05-07T01:56:09;12.24;99.96
70166;SHT30;57541;47.408;18.822;2023-05-07T01:56:40;12.24;99.91
70166;SHT30;57541;47.408;18.822;2023-05-07T01:57:12;12.21;99.99
70166;SHT30;57541;47.408;18.822;2023-05-07T01:57:44;12.25;99.99
70166;SHT30;57541;47.408;18.822;2023-05-07T01:58:15;12.24;99.99
70166;SHT30;57541;47.408;18.822;2023-05-07T01:58:47;12.22;99.99
70166;SHT30;57541;47.408;18.822;2023-05-07T01:59:19;12.17;99.99
70166;SHT30;57541;47.408;18.822;2023-05-07T01:59:50;12.20;99.99
70166;SHT30;57541;47.408;18.822;2023-05-07T02:00:22;12.17;99.98
70166;SHT30;57541;47.408;18.822;2023-05-07T02:00:54;12.18;99.99
70166;SHT30;57541;47.408;18.822;2023-05-07T02:01:26;12.17;99.99
70166;SHT30;57541;47.408;18.822;2023-05-07T02:01:57;12.20;99.99
70166;SHT30;57541;47.408;18.822;2023-05-07T02:02:29;12.20;99.99
70166;SHT30;57541;47.408;18.822;2023-05-07T02:03:01;12.17;99.93
70166;SHT30;57541;47.408;18.822;2023-05-07T02:03:33;12.10;99.67
70166;SHT30;57541;47.408;18.822;2023-05-07T02:04:05;12.10;99.82
70166;SHT30;57541;47.408;18.822;2023-05-07T02:04:36;12.04;99.67
70166;SHT30;57541;47.408;18.822;2023-05-07T02:05:08;12.07;99.69
70166;SHT30;57541;47.408;18.822;2023-05-07T02:05:40;11.94;99.56
70166;SHT30;57541;47.408;18.822;2023-05-07T02:06:12;11.93;99.73
70166;SHT30;57541;47.408;18.822;2023-05-07T02:06:44;11.88;99.76
70166;SHT30;57541;47.408;18.822;2023-05-07T02:07:15;11.87;99.71
70166;SHT30;57541;47.408;18.822;2023-05-07T02:07:47;11.83;99.78
70166;SHT30;57541;47.408;18.822;2023-05-07T02:08:19;11.81;99.94
70166;SHT30;57541;47.408;18.822;2023-05-07T02:08:51;11.83;99.99
70166;SHT30;57541;47.408;18.822;2023-05-07T02:09:22;11.84;99.99
70166;SHT30;57541;47.408;18.822;2023-05-07T02:09:54;11.88;99.99
70166;SHT30;57541;47.408;18.822;2023-05-07T02:10:29;11.91;99.99
70166;SHT30;57541;47.408;18.822;2023-05-07T02:11:00;11.97;99.99
70166;SHT30;57541;47.408;18.822;2023-05-07T02:11:32;11.95;99.99
70166;SHT30;57541;47.408;18.822;2023-05-07T02:12:04;11.83;99.58
70166;SHT30;57541;47.408;18.822;2023-05-07T02:12:36;11.86;99.64
70166;SHT30;57541;47.408;18.822;2023-05-07T02:13:07;11.87;99.69
70166;SHT30;57541;47.408;18.822;2023-05-07T02:13:39;11.79;99.81
70166;SHT30;57541;47.408;18.822;2023-05-07T02:14:11;11.69;99.88
70166;SHT30;57541;47.408;18.822;2023-05-07T02:14:42;11.67;99.74
70166;SHT30;57541;47.408;18.822;2023-05-07T02:15:14;11.73;99.96
70166;SHT30;57541;47.408;18.822;2023-05-07T02:15:46;11.77;99.96
70166;SHT30;57541;47.408;18.822;2023-05-07T02:16:21;11.60;99.99
70166;SHT30;57541;47.408;18.822;2023-05-07T02:16:54;11.62;99.60
70166;SHT30;57541;47.408;18.822;2023-05-07T02:17:27;11.59;99.74
70166;SHT30;57541;47.408;18.822;2023-05-07T02:18:31;11.65;99.55
70166;SHT30;57541;47.408;18.822;2023-05-07T02:19:03;11.66;99.73
70166;SHT30;57541;47.408;18.822;2023-05-07T02:19:35;11.66;99.93
70166;SHT30;57541;47.408;18.822;2023-05-07T02:20:07;11.67;99.91
70166;SHT30;57541;47.408;18.822;2023-05-07T02:20:44;11.67;99.99
70166;SHT30;57541;47.408;18.822;2023-05-07T02:21:16;11.67;99.99
70166;SHT30;57541;47.408;18.822;2023-05-07T02:21:47;11.62;99.99
70166;SHT30;57541;47.408;18.822;2023-05-07T02:22:20;11.59;99.99
70166;SHT30;57541;47.408;18.822;2023-05-07T02:22:51;11.63;99.99
70166;SHT30;57541;47.408;18.822;2023-05-07T02:23:23;11.66;99.99
70166;SHT30;57541;47.408;18.822;2023-05-07T02:23:55;11.59;99.99
70166;SHT30;57541;47.408;18.822;2023-05-07T02:24:26;11.66;99.99
70166;SHT30;57541;47.408;18.822;2023-05-07T02:24:58;11.65;99.99
70166;SHT30;57541;47.408;18.822;2023-05-07T02:25:30;11.65;99.99
70166;SHT30;57541;47.408;18.822;2023-05-07T02:26:01;11.70;99.99
70166;SHT30;57541;47.408;18.822;2023-05-07T02:26:33;11.63;99.99
70166;SHT30;57541;47.408;18.822;2023-05-07T02:27:05;11.53;99.99
70166;SHT30;57541;47.408;18.822;2023-05-07T02:27:37;11.59;99.99
70166;SHT30;57541;47.408;18.822;2023-05-07T02:28:09;11.46;99.99
70166;SHT30;57541;47.408;18.822;2023-05-07T02:28:40;11.49;99.99
70166;SHT30;57541;47.408;18.822;2023-05-07T02:29:12;11.52;99.99
70166;SHT30;57541;47.408;18.822;2023-05-07T02:29:43;11.52;99.99
70166;SHT30;57541;47.408;18.822;2023-05-07T02:30:15;11.49;99.99
70166;SHT30;57541;47.408;18.822;2023-05-07T02:30:47;11.44;99.99
70166;SHT30;57541;47.408;18.822;2023-05-07T02:31:19;11.46;99.99
70166;SHT30;57541;47.408;18.822;2023-05-07T02:31:51;11.44;99.95
70166;SHT30;57541;47.408;18.822;2023-05-07T02:32:24;11.38;99.99
70166;SHT30;57541;47.408;18.822;2023-05-07T02:32:56;11.36;99.95
70166;SHT30;57541;47.408;18.822;2023-05-07T02:33:28;11.32;99.91
70166;SHT30;57541;47.408;18.822;2023-05-07T02:34:00;11.32;99.99
70166;SHT30;57541;47.408;18.822;2023-05-07T02:34:31;11.35;99.99
70166;SHT30;57541;47.408;18.822;2023-05-07T02:35:05;11.35;99.99
70166;SHT30;57541;47.408;18.822;2023-05-07T02:35:36;11.32;99.99
70166;SHT30;57541;47.408;18.822;2023-05-07T02:36:09;11.26;99.99
70166;SHT30;57541;47.408;18.822;2023-05-07T02:36:41;11.33;99.99
70166;SHT30;57541;47.408;18.822;2023-05-07T02:37:12;11.36;99.99
70166;SHT30;57541;47.408;18.822;2023-05-07T02:37:44;11.43;99.99
70166;SHT30;57541;47.408;18.822;2023-05-07T02:38:16;11.49;99.99
70166;SHT30;57541;47.408;18.822;2023-05-07T02:38:48;11.52;99.99
70166;SHT30;57541;47.408;18.822;2023-05-07T02:39:19;11.46;99.99
70166;SHT30;57541;47.408;18.822;2023-05-07T02:39:51;11.55;99.99
70166;SHT30;57541;47.408;18.822;2023-05-07T02:40:23;11.47;99.99
70166;SHT30;57541;47.408;18.822;2023-05-07T02:40:54;11.50;99.99
70166;SHT30;57541;47.408;18.822;2023-05-07T02:41:26;11.53;99.99
70166;SHT30;57541;47.408;18.822;2023-05-07T02:41:59;11.60;99.99
70166;SHT30;57541;47.408;18.822;2023-05-07T02:42:31;11.65;99.99
70166;SHT30;57541;47.408;18.822;2023-05-07T02:43:02;11.63;99.99
70166;SHT30;57541;47.408;18.822;2023-05-07T02:43:34;11.65;99.99
70166;SHT30;57541;47.408;18.822;2023-05-07T02:44:06;11.66;99.99
70166;SHT30;57541;47.408;18.822;2023-05-07T02:44:37;11.66;99.99
70166;SHT30;57541;47.408;18.822;2023-05-07T02:45:09;11.65;99.99
70166;SHT30;57541;47.408;18.822;2023-05-07T02:45:41;11.66;99.99
70166;SHT30;57541;47.408;18.822;2023-05-07T02:46:14;11.63;99.99
70166;SHT30;57541;47.408;18.822;2023-05-07T02:46:47;11.62;99.99
70166;SHT30;57541;47.408;18.822;2023-05-07T02:47:18;11.66;99.99
70166;SHT30;57541;47.408;18.822;2023-05-07T02:47:50;11.63;99.99
70166;SHT30;57541;47.408;18.822;2023-05-07T02:48:22;11.65;99.99
70166;SHT30;57541;47.408;18.822;2023-05-07T02:48:54;11.65;99.99
70166;SHT30;57541;47.408;18.822;2023-05-07T02:49:25;11.59;99.99
70166;SHT30;57541;47.408;18.822;2023-05-07T02:49:57;11.62;99.99
70166;SHT30;57541;47.408;18.822;2023-05-07T02:50:29;11.63;99.99
70166;SHT30;57541;47.408;18.822;2023-05-07T02:51:01;11.67;99.99
70166;SHT30;57541;47.408;18.822;2023-05-07T02:51:33;11.63;99.99
70166;SHT30;57541;47.408;18.822;2023-05-07T02:52:05;11.66;99.99
70166;SHT30;57541;47.408;18.822;2023-05-07T02:52:37;11.69;99.99
70166;SHT30;57541;47.408;18.822;2023-05-07T02:53:08;11.71;99.99
70166;SHT30;57541;47.408;18.822;2023-05-07T02:53:40;11.71;99.99
70166;SHT30;57541;47.408;18.822;2023-05-07T02:54:12;11.73;99.99
70166;SHT30;57541;47.408;18.822;2023-05-07T02:54:43;11.76;99.99
70166;SHT30;57541;47.408;18.822;2023-05-07T02:55:15;11.62;99.97
70166;SHT30;57541;47.408;18.822;2023-05-07T02:55:47;11.65;99.99
70166;SHT30;57541;47.408;18.822;2023-05-07T02:56:18;11.62;99.99
70166;SHT30;57541;47.408;18.822;2023-05-07T02:56:50;11.65;99.99
70166;SHT30;57541;47.408;18.822;2023-05-07T02:57:21;11.60;99.99
70166;SHT30;57541;47.408;18.822;2023-05-07T02:57:53;11.63;99.99
70166;SHT30;57541;47.408;18.822;2023-05-07T02:58:25;11.66;99.99
70166;SHT30;57541;47.408;18.822;2023-05-07T02:58:57;11.67;99.99
70166;SHT30;57541;47.408;18.822;2023-05-07T02:59:29;11.73;99.99
70166;SHT30;57541;47.408;18.822;2023-05-07T03:00:13;11.79;99.97
70166;SHT30;57541;47.408;18.822;2023-05-07T03:00:45;11.77;99.96
70166;SHT30;57541;47.408;18.822;2023-05-07T03:01:17;11.76;99.97
70166;SHT30;57541;47.408;18.822;2023-05-07T03:01:48;11.81;99.99
70166;SHT30;57541;47.408;18.822;2023-05-07T03:02:20;11.80;99.92
70166;SHT30;57541;47.408;18.822;2023-05-07T03:02:52;11.77;99.98
70166;SHT30;57541;47.408;18.822;2023-05-07T03:03:24;11.80;99.98
70166;SHT30;57541;47.408;18.822;2023-05-07T03:03:56;11.84;99.99
70166;SHT30;57541;47.408;18.822;2023-05-07T03:04:27;11.70;99.99
70166;SHT30;57541;47.408;18.822;2023-05-07T03:04:59;11.73;99.99
70166;SHT30;57541;47.408;18.822;2023-05-07T03:05:30;11.71;99.99
70166;SHT30;57541;47.408;18.822;2023-05-07T03:06:02;11.71;99.99
70166;SHT30;57541;47.408;18.822;2023-05-07T03:06:34;11.67;99.99
70166;SHT30;57541;47.408;18.822;2023-05-07T03:07:06;11.69;99.99
70166;SHT30;57541;47.408;18.822;2023-05-07T03:07:37;11.67;99.99
70166;SHT30;57541;47.408;18.822;2023-05-07T03:08:10;11.67;99.99
70166;SHT30;57541;47.408;18.822;2023-05-07T03:08:41;11.74;99.99
70166;SHT30;57541;47.408;18.822;2023-05-07T03:09:13;11.71;99.99
70166;SHT30;57541;47.408;18.822;2023-05-07T03:09:44;11.73;99.99
70166;SHT30;57541;47.408;18.822;2023-05-07T03:10:16;11.76;99.99
70166;SHT30;57541;47.408;18.822;2023-05-07T03:10:48;11.70;99.99
70166;SHT30;57541;47.408;18.822;2023-05-07T03:11:20;11.71;99.99
70166;SHT30;57541;47.408;18.822;2023-05-07T03:11:51;11.67;99.99
70166;SHT30;57541;47.408;18.822;2023-05-07T03:12:23;11.71;99.99
70166;SHT30;57541;47.408;18.822;2023-05-07T03:12:54;11.69;99.99
70166;SHT30;57541;47.408;18.822;2023-05-07T03:13:26;11.73;99.99
70166;SHT30;57541;47.408;18.822;2023-05-07T03:13:58;11.77;99.99
70166;SHT30;57541;47.408;18.822;2023-05-07T03:14:30;11.71;99.99
70166;SHT30;57541;47.408;18.822;2023-05-07T03:15:02;11.67;99.99
70166;SHT30;57541;47.408;18.822;2023-05-07T03:15:33;11.67;99.99
70166;SHT30;57541;47.408;18.822;2023-05-07T03:16:05;11.70;99.99
70166;SHT30;57541;47.408;18.822;2023-05-07T03:16:37;11.66;99.99
70166;SHT30;57541;47.408;18.822;2023-05-07T03:17:09;11.62;99.99
70166;SHT30;57541;47.408;18.822;2023-05-07T03:17:41;11.58;99.99
70166;SHT30;57541;47.408;18.822;2023-05-07T03:18:12;11.59;99.99
70166;SHT30;57541;47.408;18.822;2023-05-07T03:18:44;11.65;99.99
70166;SHT30;57541;47.408;18.822;2023-05-07T03:19:16;11.66;99.99
70166;SHT30;57541;47.408;18.822;2023-05-07T03:19:48;11.66;99.99
70166;SHT30;57541;47.408;18.822;2023-05-07T03:20:19;11.69;99.99
70166;SHT30;57541;47.408;18.822;2023-05-07T03:20:52;11.66;99.99